Aérodrome :
LOGIN :

S'inscrire | Disclaimer

   EN    FR    IT 

 










Légende :    VFR   VFR Marginal   IFR   IFR Intensif   IFR Très Intensif
Visi : 
Plafond : 
>= 8 km
>= 3000ft
5 à 8 km
1000 à 3000 ft
1500m à 5 km
500 à 1000 ft
800 à 1500m
200 à 500 ft
< 800m
< 200 ft
Symboles :   Orages  Brouillard  Fortes neiges  Fortes précipitations  Vent > 20 kt
SIGMETs :   Divers  Orages  Givrage  Turbulence  Onde Orograph.  Cendres Volcan.






- Altitude de l'aérodrome : 72 ft
- Code IATA : UDE


EHVK - Volkel Airbase

DERNIER METAR :
  • 301825Z AUTO 34007KT 300V360 9999 SCT032 BKN037 OVC042 07/03 Q1027 BLU

METARs EXPIRÉS :
  • 301755Z AUTO 33008KT 300V360 9999 FEW024 SCT037 BKN042 07/02 Q1027 BLU
  • 301725Z AUTO 34007KT 300V360 9999 FEW044 OVC072 08/02 Q1027 BLU
  • 301655Z AUTO 33008KT 290V360 9999 OVC077 08/01 Q1027 BLU
  • 301625Z AUTO 33009KT 300V010 9999 FEW048 BKN052 BKN080 09/01 Q1027 BLU
  • 301555Z AUTO 33010KT 310V030 9999 SCT047 BKN051 OVC057 09/M00 Q1027 BLU

TAF COR TAF EHVK
Valide du 30 à 17h jusqu'au 31 à 05h UTC


301608Z 3017/3105 34008KT 9999 SCT045 BKN050
PROB40
TEMPO 3016/3021 SCT020CB BKN040
BECMG 3100/3103 04006KT



MET'MAP, la Météo Aéronautique d'un coup d'oeil ! - Copyright ORBIFLY Décembre 2007 - Disclaimer

ORBIFLY MET'MAP TEAM :

Programmation & Développement : Alexandra Zaïnal
Sur une idée originale de : Baudouin d'Aumeries
Assistance à la programmation : Marc-Olivier Méhu
Soutien technique & logistique : Manuel Goepfert

Contact : metmap@orbifly.com




SOURCES & CREDITS :

   NOAA